ASL40E LYBE-LGSR
Flight info
| Callsign | ASL40E |
|---|---|
| Flight time | 1h 25m |
| Altitude | 37000 |
| Route | TPL DCT IBISI DCT RAXAD DCT MAKED UL617 SKP UN137 NEVRA UT514 PEXAN |
| Aircraft | A319/M-SDE3FGHIRWY/LB1 |
Departure
| Time | 2026-05-05 20:05 |
|---|---|
| Airport | Belgrade Nikola Tesla Airport (LYBE) |
Arrival
| Time | 2026-05-05 21:30 |
|---|---|
| Airport | Santorini International Airport (LGSR) |
| Time | Latitude | Longitude | Altitude | Speed | Heading |
|---|---|---|---|---|---|
| 2026-05-05 19:38 | 44.81897 | 20.29236 | 326 ft | 0 kts | 302° |
| 2026-05-05 19:57 | 44.81891 | 20.29250 | 327 ft | 3 kts | 304° |
| 2026-05-05 19:57 | 44.81883 | 20.29265 | 323 ft | 3 kts | 309° |
| 2026-05-05 19:57 | 44.81864 | 20.29293 | 325 ft | 3 kts | 321° |
| 2026-05-05 19:57 | 44.81847 | 20.29303 | 326 ft | 3 kts | 34° |
| 2026-05-05 19:58 | 44.81846 | 20.29301 | 326 ft | 0 kts | 35° |
| 2026-05-05 20:02 | 44.81847 | 20.29303 | 325 ft | 1 kts | 35° |
| 2026-05-05 20:02 | 44.81860 | 20.29315 | 325 ft | 3 kts | 35° |
| 2026-05-05 20:02 | 44.81884 | 20.29337 | 325 ft | 5 kts | 32° |
| 2026-05-05 20:02 | 44.81922 | 20.29371 | 325 ft | 8 kts | 32° |
| 2026-05-05 20:03 | 44.81976 | 20.29417 | 325 ft | 11 kts | 31° |
| 2026-05-05 20:03 | 44.82046 | 20.29479 | 325 ft | 13 kts | 32° |
| 2026-05-05 20:03 | 44.82127 | 20.29550 | 326 ft | 14 kts | 32° |
| 2026-05-05 20:03 | 44.82215 | 20.29627 | 327 ft | 16 kts | 32° |
| 2026-05-05 20:04 | 44.82312 | 20.29712 | 327 ft | 17 kts | 32° |
| 2026-05-05 20:04 | 44.82341 | 20.29793 | 327 ft | 13 kts | 118° |
| 2026-05-05 20:04 | 44.82188 | 20.30144 | 323 ft | 73 kts | 122° |
| 2026-05-05 20:04 | 44.81812 | 20.30990 | 327 ft | 129 kts | 122° |
| 2026-05-05 20:05 | 44.81263 | 20.32222 | 589 ft | 152 kts | 122° |
| 2026-05-05 20:05 | 44.80704 | 20.33476 | 1213 ft | 152 kts | 125° |
| 2026-05-05 20:05 | 44.80147 | 20.34737 | 1836 ft | 152 kts | 126° |
| 2026-05-05 20:05 | 44.79571 | 20.36032 | 2335 ft | 164 kts | 126° |
| 2026-05-05 20:06 | 44.78920 | 20.37486 | 2626 ft | 187 kts | 126° |
| 2026-05-05 20:06 | 44.78183 | 20.39129 | 2925 ft | 211 kts | 126° |
| 2026-05-05 20:06 | 44.77350 | 20.40982 | 3322 ft | 236 kts | 125° |
| 2026-05-05 20:06 | 44.76457 | 20.42980 | 4259 ft | 244 kts | 124° |
| 2026-05-05 20:07 | 44.75551 | 20.45022 | 5189 ft | 248 kts | 124° |
| 2026-05-05 20:07 | 44.74633 | 20.47097 | 6144 ft | 251 kts | 124° |
| 2026-05-05 20:07 | 44.73699 | 20.49199 | 7069 ft | 255 kts | 124° |
| 2026-05-05 20:07 | 44.72746 | 20.51336 | 7932 ft | 261 kts | 124° |
| 2026-05-05 20:08 | 44.71773 | 20.53519 | 8822 ft | 266 kts | 124° |
| 2026-05-05 20:08 | 44.70782 | 20.55738 | 9716 ft | 270 kts | 124° |
| 2026-05-05 20:08 | 44.70117 | 20.57226 | 10262 ft | 273 kts | 124° |
| 2026-05-05 20:08 | 44.69085 | 20.59473 | 11126 ft | 274 kts | 128° |
| 2026-05-05 20:09 | 44.67744 | 20.61359 | 11982 ft | 273 kts | 145° |
| 2026-05-05 20:09 | 44.66049 | 20.62651 | 12561 ft | 286 kts | 161° |
| 2026-05-05 20:09 | 44.64072 | 20.63225 | 13221 ft | 294 kts | 171° |
| 2026-05-05 20:09 | 44.62034 | 20.63661 | 13990 ft | 298 kts | 171° |
| 2026-05-05 20:10 | 44.59975 | 20.64120 | 14682 ft | 303 kts | 170° |
| 2026-05-05 20:10 | 44.57896 | 20.65020 | 14866 ft | 326 kts | 154° |
| 2026-05-05 20:10 | 44.55807 | 20.66503 | 15093 ft | 344 kts | 153° |
| 2026-05-05 20:10 | 44.53659 | 20.68075 | 15621 ft | 352 kts | 153° |
| 2026-05-05 20:11 | 44.51480 | 20.69688 | 16254 ft | 356 kts | 153° |
| 2026-05-05 20:11 | 44.49275 | 20.71323 | 16882 ft | 361 kts | 153° |
| 2026-05-05 20:11 | 44.47033 | 20.72981 | 17446 ft | 367 kts | 153° |
| 2026-05-05 20:11 | 44.44756 | 20.74655 | 18044 ft | 372 kts | 153° |
| 2026-05-05 20:12 | 44.42447 | 20.76340 | 18605 ft | 377 kts | 153° |
| 2026-05-05 20:12 | 44.40107 | 20.78039 | 19146 ft | 381 kts | 153° |
| 2026-05-05 20:12 | 44.37741 | 20.79750 | 19689 ft | 385 kts | 153° |
| 2026-05-05 20:12 | 44.35350 | 20.81476 | 20240 ft | 389 kts | 153° |
| 2026-05-05 20:13 | 44.32933 | 20.83222 | 20783 ft | 393 kts | 153° |
| 2026-05-05 20:13 | 44.30492 | 20.84986 | 21313 ft | 397 kts | 153° |
| 2026-05-05 20:13 | 44.28060 | 20.86744 | 21835 ft | 401 kts | 153° |
| 2026-05-05 20:13 | 44.25570 | 20.88546 | 22356 ft | 405 kts | 153° |
| 2026-05-05 20:14 | 44.23055 | 20.90366 | 22874 ft | 409 kts | 153° |
| 2026-05-05 20:14 | 44.20518 | 20.92200 | 23394 ft | 413 kts | 153° |
| 2026-05-05 20:14 | 44.17954 | 20.94050 | 23828 ft | 417 kts | 153° |
| 2026-05-05 20:14 | 44.15370 | 20.95910 | 24235 ft | 420 kts | 153° |
| 2026-05-05 20:15 | 44.12766 | 20.97784 | 24664 ft | 423 kts | 154° |
| 2026-05-05 20:15 | 44.10144 | 20.99672 | 25084 ft | 426 kts | 154° |
| 2026-05-05 20:15 | 44.07505 | 21.01572 | 25496 ft | 429 kts | 154° |
| 2026-05-05 20:15 | 44.04844 | 21.03487 | 25900 ft | 432 kts | 154° |
| 2026-05-05 20:16 | 44.02164 | 21.05410 | 26308 ft | 435 kts | 154° |
| 2026-05-05 20:16 | 43.99463 | 21.07345 | 26701 ft | 438 kts | 154° |
| 2026-05-05 20:16 | 43.96743 | 21.09286 | 27101 ft | 441 kts | 154° |
| 2026-05-05 20:16 | 43.94004 | 21.11237 | 27469 ft | 445 kts | 154° |
| 2026-05-05 20:17 | 43.91237 | 21.13208 | 27798 ft | 449 kts | 154° |
| 2026-05-05 20:17 | 43.88447 | 21.15197 | 28164 ft | 453 kts | 154° |
| 2026-05-05 20:17 | 43.85634 | 21.17198 | 28541 ft | 456 kts | 154° |
| 2026-05-05 20:17 | 43.82804 | 21.19210 | 28920 ft | 459 kts | 154° |
| 2026-05-05 20:18 | 43.79954 | 21.21235 | 29293 ft | 462 kts | 154° |
| 2026-05-05 20:18 | 43.77083 | 21.23273 | 29653 ft | 465 kts | 154° |
| 2026-05-05 20:18 | 43.74196 | 21.25323 | 30022 ft | 467 kts | 154° |
| 2026-05-05 20:18 | 43.71298 | 21.27381 | 30364 ft | 469 kts | 155° |
| 2026-05-05 20:19 | 43.68425 | 21.29416 | 30665 ft | 472 kts | 154° |
| 2026-05-05 20:19 | 43.65490 | 21.31491 | 30891 ft | 476 kts | 154° |
| 2026-05-05 20:19 | 43.62531 | 21.33572 | 31172 ft | 479 kts | 154° |
| 2026-05-05 20:19 | 43.59558 | 21.35661 | 31458 ft | 481 kts | 154° |
| 2026-05-05 20:20 | 43.56575 | 21.37762 | 31826 ft | 481 kts | 154° |
| 2026-05-05 20:20 | 43.53603 | 21.39856 | 32272 ft | 479 kts | 155° |
| 2026-05-05 20:20 | 43.50638 | 21.41944 | 32718 ft | 478 kts | 155° |
| 2026-05-05 20:20 | 43.47679 | 21.44024 | 33156 ft | 477 kts | 155° |
| 2026-05-05 20:21 | 43.44725 | 21.46095 | 33599 ft | 476 kts | 155° |
| 2026-05-05 20:21 | 43.41774 | 21.48157 | 34018 ft | 476 kts | 155° |
| 2026-05-05 20:21 | 43.38819 | 21.50219 | 34331 ft | 477 kts | 155° |
| 2026-05-05 20:21 | 43.35864 | 21.52281 | 34667 ft | 476 kts | 155° |
| 2026-05-05 20:22 | 43.32913 | 21.54343 | 35022 ft | 476 kts | 155° |
| 2026-05-05 20:22 | 43.29966 | 21.56404 | 35383 ft | 475 kts | 155° |
| 2026-05-05 20:22 | 43.27024 | 21.58461 | 35718 ft | 474 kts | 155° |
| 2026-05-05 20:22 | 43.24085 | 21.60511 | 36071 ft | 474 kts | 155° |
| 2026-05-05 20:23 | 43.21148 | 21.62553 | 36410 ft | 473 kts | 155° |
| 2026-05-05 20:23 | 43.18214 | 21.64589 | 36752 ft | 472 kts | 155° |
| 2026-05-05 20:23 | 43.15282 | 21.66623 | 36967 ft | 472 kts | 155° |
| 2026-05-05 20:24 | 43.09434 | 21.70668 | 37006 ft | 470 kts | 155° |
| 2026-05-05 20:24 | 43.03579 | 21.74712 | 37007 ft | 472 kts | 155° |
| 2026-05-05 20:25 | 42.97708 | 21.78766 | 37009 ft | 473 kts | 155° |
| 2026-05-05 20:25 | 42.91831 | 21.82813 | 37028 ft | 473 kts | 155° |
| 2026-05-05 20:26 | 42.85949 | 21.86839 | 37016 ft | 473 kts | 155° |
| 2026-05-05 20:26 | 42.80066 | 21.90868 | 37001 ft | 473 kts | 155° |
| 2026-05-05 20:27 | 42.74180 | 21.94895 | 37003 ft | 474 kts | 155° |
| 2026-05-05 20:27 | 42.68287 | 21.98925 | 37007 ft | 474 kts | 155° |
| 2026-05-05 20:28 | 42.62385 | 22.02947 | 37008 ft | 475 kts | 155° |
| 2026-05-05 20:28 | 42.56472 | 22.06949 | 37024 ft | 475 kts | 155° |
| 2026-05-05 20:29 | 42.50601 | 22.10920 | 37030 ft | 475 kts | 155° |
| 2026-05-05 20:29 | 42.44694 | 22.14918 | 37034 ft | 475 kts | 155° |
| 2026-05-05 20:30 | 42.38784 | 22.18915 | 37020 ft | 475 kts | 155° |
| 2026-05-05 20:30 | 42.32854 | 22.22870 | 37022 ft | 475 kts | 159° |
| 2026-05-05 20:31 | 42.26556 | 22.25291 | 37025 ft | 470 kts | 173° |
| 2026-05-05 20:31 | 42.20112 | 22.26797 | 37009 ft | 470 kts | 173° |
| 2026-05-05 20:32 | 42.13663 | 22.28320 | 37012 ft | 471 kts | 173° |
| 2026-05-05 20:32 | 42.07207 | 22.29839 | 37012 ft | 471 kts | 173° |
| 2026-05-05 20:33 | 42.00750 | 22.31352 | 37016 ft | 471 kts | 173° |
| 2026-05-05 20:33 | 41.94295 | 22.32874 | 37012 ft | 471 kts | 173° |
| 2026-05-05 20:34 | 41.87834 | 22.34382 | 37009 ft | 471 kts | 173° |
| 2026-05-05 20:34 | 41.81368 | 22.35882 | 37011 ft | 472 kts | 173° |
| 2026-05-05 20:35 | 41.74893 | 22.37381 | 36995 ft | 472 kts | 173° |
| 2026-05-05 20:35 | 41.68453 | 22.38891 | 36999 ft | 473 kts | 173° |
| 2026-05-05 20:36 | 41.61958 | 22.40398 | 37004 ft | 474 kts | 173° |
| 2026-05-05 20:36 | 41.55451 | 22.41901 | 36994 ft | 475 kts | 173° |
| 2026-05-05 20:37 | 41.48932 | 22.43409 | 37001 ft | 476 kts | 173° |
| 2026-05-05 20:37 | 41.42400 | 22.44913 | 37009 ft | 476 kts | 173° |
| 2026-05-05 20:38 | 41.35867 | 22.46409 | 37021 ft | 477 kts | 174° |
| 2026-05-05 20:38 | 41.29318 | 22.47901 | 37014 ft | 478 kts | 173° |
| 2026-05-05 20:39 | 41.22755 | 22.49400 | 37011 ft | 479 kts | 173° |
| 2026-05-05 20:39 | 41.16188 | 22.50914 | 37011 ft | 480 kts | 172° |
| 2026-05-05 20:40 | 41.09854 | 22.53826 | 37008 ft | 487 kts | 154° |
| 2026-05-05 20:40 | 41.03891 | 22.58099 | 37010 ft | 488 kts | 153° |
| 2026-05-05 20:41 | 40.97912 | 22.62357 | 37012 ft | 488 kts | 153° |
| 2026-05-05 20:41 | 40.91924 | 22.66596 | 36993 ft | 488 kts | 153° |
| 2026-05-05 20:42 | 40.85926 | 22.70833 | 36999 ft | 489 kts | 153° |
| 2026-05-05 20:42 | 40.79921 | 22.75074 | 37003 ft | 490 kts | 153° |
| 2026-05-05 20:43 | 40.73918 | 22.79317 | 37035 ft | 489 kts | 153° |
| 2026-05-05 20:43 | 40.67909 | 22.83544 | 37013 ft | 490 kts | 153° |
| 2026-05-05 20:44 | 40.61890 | 22.87760 | 37009 ft | 490 kts | 153° |
| 2026-05-05 20:44 | 40.55904 | 22.91951 | 37012 ft | 491 kts | 153° |
| 2026-05-05 20:45 | 40.46850 | 22.98278 | 37018 ft | 492 kts | 154° |
| 2026-05-05 20:45 | 40.40547 | 23.01688 | 37019 ft | 490 kts | 161° |
| 2026-05-05 20:46 | 40.34175 | 23.04847 | 37023 ft | 490 kts | 161° |
| 2026-05-05 20:46 | 40.27799 | 23.08004 | 37026 ft | 490 kts | 161° |
| 2026-05-05 20:47 | 40.21427 | 23.11170 | 37033 ft | 490 kts | 161° |
| 2026-05-05 20:47 | 40.15052 | 23.14324 | 37027 ft | 490 kts | 161° |
| 2026-05-05 20:48 | 40.08673 | 23.17470 | 37031 ft | 490 kts | 161° |
| 2026-05-05 20:48 | 40.02290 | 23.20616 | 37036 ft | 490 kts | 161° |
| 2026-05-05 20:49 | 39.95906 | 23.23767 | 37021 ft | 491 kts | 161° |
| 2026-05-05 20:49 | 39.89512 | 23.26906 | 37024 ft | 491 kts | 161° |
| 2026-05-05 20:50 | 39.84195 | 23.29514 | 37030 ft | 492 kts | 161° |
| 2026-05-05 20:50 | 39.76709 | 23.33181 | 37024 ft | 492 kts | 161° |
| 2026-05-05 20:51 | 39.70295 | 23.36304 | 37027 ft | 492 kts | 161° |
| 2026-05-05 20:51 | 39.63878 | 23.39426 | 37032 ft | 493 kts | 161° |
| 2026-05-05 20:52 | 39.57458 | 23.42559 | 37035 ft | 493 kts | 161° |
| 2026-05-05 20:52 | 39.51080 | 23.45653 | 37036 ft | 493 kts | 162° |
| 2026-05-05 20:53 | 39.44659 | 23.48757 | 37038 ft | 492 kts | 162° |
| 2026-05-05 20:53 | 39.38243 | 23.51858 | 37043 ft | 492 kts | 162° |
| 2026-05-05 20:54 | 39.31826 | 23.54959 | 37045 ft | 492 kts | 162° |
| 2026-05-05 20:54 | 39.25409 | 23.58058 | 37040 ft | 492 kts | 162° |
| 2026-05-05 20:55 | 39.19031 | 23.61288 | 37047 ft | 494 kts | 155° |
| 2026-05-05 20:55 | 39.13274 | 23.66138 | 37046 ft | 496 kts | 144° |
| 2026-05-05 20:56 | 39.07719 | 23.71413 | 37045 ft | 496 kts | 144° |
| 2026-05-05 20:56 | 39.02152 | 23.76664 | 37045 ft | 497 kts | 144° |
| 2026-05-05 20:57 | 38.96573 | 23.81919 | 37046 ft | 497 kts | 144° |
| 2026-05-05 20:57 | 38.90985 | 23.87168 | 37048 ft | 498 kts | 144° |
| 2026-05-05 20:58 | 38.85396 | 23.92421 | 37052 ft | 498 kts | 144° |
| 2026-05-05 20:58 | 38.79805 | 23.97676 | 37046 ft | 498 kts | 145° |
| 2026-05-05 20:59 | 38.75148 | 24.02042 | 37042 ft | 499 kts | 145° |
| 2026-05-05 20:59 | 38.69526 | 24.07289 | 37066 ft | 501 kts | 144° |
| 2026-05-05 21:00 | 38.63904 | 24.12543 | 37077 ft | 500 kts | 144° |
| 2026-05-05 21:00 | 38.58281 | 24.17775 | 37086 ft | 500 kts | 144° |
| 2026-05-05 21:01 | 38.52659 | 24.22997 | 37062 ft | 499 kts | 145° |
| 2026-05-05 21:01 | 38.47031 | 24.28217 | 37052 ft | 501 kts | 146° |
| 2026-05-05 21:02 | 38.41380 | 24.33432 | 37050 ft | 502 kts | 146° |
| 2026-05-05 21:02 | 38.35722 | 24.38653 | 37072 ft | 502 kts | 146° |
| 2026-05-05 21:03 | 38.30064 | 24.43871 | 37083 ft | 502 kts | 145° |
| 2026-05-05 21:03 | 38.24408 | 24.49075 | 37058 ft | 502 kts | 146° |
| 2026-05-05 21:04 | 38.18711 | 24.54226 | 37048 ft | 502 kts | 150° |
| 2026-05-05 21:04 | 38.12418 | 24.57901 | 37050 ft | 496 kts | 166° |
| 2026-05-05 21:05 | 38.09137 | 24.59286 | 36837 ft | 499 kts | 166° |
| 2026-05-05 21:05 | 38.05835 | 24.60682 | 36309 ft | 500 kts | 165° |
| 2026-05-05 21:05 | 38.02524 | 24.62082 | 35807 ft | 503 kts | 165° |
| 2026-05-05 21:05 | 37.99193 | 24.63492 | 35312 ft | 506 kts | 165° |
| 2026-05-05 21:06 | 37.95841 | 24.64912 | 34826 ft | 510 kts | 165° |
| 2026-05-05 21:06 | 37.92462 | 24.66340 | 34349 ft | 514 kts | 165° |
| 2026-05-05 21:06 | 37.89059 | 24.67778 | 33848 ft | 517 kts | 165° |
| 2026-05-05 21:06 | 37.85653 | 24.69221 | 33302 ft | 515 kts | 164° |
| 2026-05-05 21:07 | 37.82270 | 24.70656 | 32769 ft | 511 kts | 164° |
| 2026-05-05 21:07 | 37.78955 | 24.72055 | 32261 ft | 507 kts | 164° |
| 2026-05-05 21:07 | 37.75625 | 24.73452 | 31733 ft | 503 kts | 164° |
| 2026-05-05 21:07 | 37.72320 | 24.74834 | 31234 ft | 498 kts | 164° |
| 2026-05-05 21:08 | 37.69045 | 24.76206 | 30737 ft | 493 kts | 164° |
| 2026-05-05 21:08 | 37.65803 | 24.77566 | 30259 ft | 489 kts | 164° |
| 2026-05-05 21:08 | 37.62592 | 24.78914 | 29715 ft | 484 kts | 164° |
| 2026-05-05 21:08 | 37.59414 | 24.80246 | 29159 ft | 479 kts | 164° |
| 2026-05-05 21:09 | 37.56265 | 24.81565 | 28612 ft | 475 kts | 164° |
| 2026-05-05 21:09 | 37.53145 | 24.82866 | 28069 ft | 470 kts | 165° |
| 2026-05-05 21:09 | 37.50049 | 24.84153 | 27548 ft | 466 kts | 165° |
| 2026-05-05 21:09 | 37.46982 | 24.85428 | 27028 ft | 462 kts | 165° |
| 2026-05-05 21:10 | 37.43941 | 24.86694 | 26526 ft | 458 kts | 165° |
| 2026-05-05 21:10 | 37.40923 | 24.87953 | 26027 ft | 455 kts | 164° |
| 2026-05-05 21:10 | 37.37928 | 24.89203 | 25541 ft | 452 kts | 164° |
| 2026-05-05 21:10 | 37.34955 | 24.90444 | 25060 ft | 449 kts | 164° |
| 2026-05-05 21:11 | 37.31998 | 24.91675 | 24587 ft | 446 kts | 164° |
| 2026-05-05 21:11 | 37.29058 | 24.92893 | 24110 ft | 444 kts | 165° |
| 2026-05-05 21:11 | 37.26137 | 24.94099 | 23646 ft | 441 kts | 165° |
| 2026-05-05 21:11 | 37.23229 | 24.95301 | 23107 ft | 439 kts | 164° |
| 2026-05-05 21:12 | 37.20339 | 24.96494 | 22573 ft | 436 kts | 164° |
| 2026-05-05 21:12 | 37.17469 | 24.97684 | 22049 ft | 433 kts | 164° |
| 2026-05-05 21:12 | 37.14619 | 24.98866 | 21543 ft | 430 kts | 164° |
| 2026-05-05 21:12 | 37.11829 | 25.00020 | 21037 ft | 426 kts | 164° |
| 2026-05-05 21:13 | 37.09021 | 25.01177 | 20554 ft | 423 kts | 164° |
| 2026-05-05 21:13 | 37.06238 | 25.02323 | 20069 ft | 419 kts | 163° |
| 2026-05-05 21:13 | 37.03481 | 25.03459 | 19582 ft | 415 kts | 163° |
| 2026-05-05 21:13 | 37.00747 | 25.04586 | 19108 ft | 412 kts | 163° |
| 2026-05-05 21:14 | 36.98040 | 25.05700 | 18638 ft | 408 kts | 163° |
| 2026-05-05 21:14 | 36.95361 | 25.06801 | 18149 ft | 404 kts | 163° |
| 2026-05-05 21:14 | 36.92704 | 25.07892 | 17618 ft | 400 kts | 163° |
| 2026-05-05 21:14 | 36.90077 | 25.08971 | 17097 ft | 396 kts | 163° |
| 2026-05-05 21:15 | 36.87477 | 25.10036 | 16580 ft | 391 kts | 163° |
| 2026-05-05 21:15 | 36.84903 | 25.11087 | 16082 ft | 387 kts | 162° |
| 2026-05-05 21:15 | 36.82357 | 25.12126 | 15585 ft | 383 kts | 162° |
| 2026-05-05 21:15 | 36.79839 | 25.13153 | 15085 ft | 379 kts | 162° |
| 2026-05-05 21:16 | 36.77349 | 25.14168 | 14604 ft | 374 kts | 162° |
| 2026-05-05 21:16 | 36.74886 | 25.15169 | 14132 ft | 370 kts | 162° |
| 2026-05-05 21:16 | 36.72449 | 25.16159 | 13637 ft | 366 kts | 161° |
| 2026-05-05 21:16 | 36.70041 | 25.17151 | 13112 ft | 363 kts | 159° |
| 2026-05-05 21:17 | 36.67783 | 25.18504 | 12591 ft | 358 kts | 147° |
| 2026-05-05 21:17 | 36.65799 | 25.20334 | 12083 ft | 353 kts | 137° |
| 2026-05-05 21:17 | 36.63952 | 25.22323 | 11582 ft | 350 kts | 137° |
| 2026-05-05 21:17 | 36.62113 | 25.24284 | 11089 ft | 347 kts | 137° |
| 2026-05-05 21:18 | 36.60286 | 25.26224 | 10606 ft | 344 kts | 137° |
| 2026-05-05 21:18 | 36.58474 | 25.28147 | 10129 ft | 341 kts | 136° |
| 2026-05-05 21:18 | 36.56700 | 25.30026 | 9622 ft | 338 kts | 136° |
| 2026-05-05 21:18 | 36.54915 | 25.31918 | 9102 ft | 336 kts | 137° |
| 2026-05-05 21:19 | 36.53143 | 25.33797 | 8592 ft | 332 kts | 137° |
| 2026-05-05 21:19 | 36.51402 | 25.35639 | 8084 ft | 325 kts | 137° |
| 2026-05-05 21:19 | 36.49695 | 25.37447 | 7586 ft | 320 kts | 137° |
| 2026-05-05 21:19 | 36.48019 | 25.39218 | 7171 ft | 312 kts | 137° |
| 2026-05-05 21:20 | 36.46381 | 25.40951 | 6803 ft | 306 kts | 137° |
| 2026-05-05 21:20 | 36.44782 | 25.42645 | 6441 ft | 298 kts | 137° |
| 2026-05-05 21:20 | 36.43220 | 25.44302 | 6057 ft | 294 kts | 137° |
| 2026-05-05 21:20 | 36.41676 | 25.45938 | 5670 ft | 290 kts | 138° |
| 2026-05-05 21:21 | 36.40160 | 25.47559 | 5293 ft | 285 kts | 135° |
| 2026-05-05 21:21 | 36.38890 | 25.49422 | 4922 ft | 281 kts | 122° |
| 2026-05-05 21:21 | 36.37858 | 25.51467 | 4589 ft | 279 kts | 121° |
| 2026-05-05 21:21 | 36.36824 | 25.53503 | 4335 ft | 279 kts | 121° |
| 2026-05-05 21:22 | 36.35787 | 25.55530 | 4146 ft | 275 kts | 121° |
| 2026-05-05 21:22 | 36.34785 | 25.57478 | 4006 ft | 261 kts | 122° |
| 2026-05-05 21:22 | 36.33838 | 25.59325 | 3880 ft | 246 kts | 122° |
| 2026-05-05 21:22 | 36.32953 | 25.61053 | 3796 ft | 228 kts | 122° |
| 2026-05-05 21:23 | 36.32134 | 25.62657 | 3720 ft | 213 kts | 122° |
| 2026-05-05 21:23 | 36.31355 | 25.64190 | 3647 ft | 208 kts | 122° |
| 2026-05-05 21:23 | 36.30360 | 25.65467 | 3564 ft | 207 kts | 150° |
| 2026-05-05 21:23 | 36.29030 | 25.66052 | 3529 ft | 196 kts | 175° |
| 2026-05-05 21:24 | 36.27743 | 25.65999 | 3442 ft | 179 kts | 197° |
| 2026-05-05 21:24 | 36.26596 | 25.65435 | 3395 ft | 176 kts | 217° |
| 2026-05-05 21:24 | 36.25686 | 25.64455 | 3347 ft | 171 kts | 236° |
| 2026-05-05 21:24 | 36.25101 | 25.63208 | 3295 ft | 165 kts | 253° |
| 2026-05-05 21:25 | 36.24873 | 25.61853 | 3246 ft | 162 kts | 270° |
| 2026-05-05 21:25 | 36.24992 | 25.60484 | 3192 ft | 160 kts | 287° |
| 2026-05-05 21:25 | 36.25438 | 25.59243 | 3120 ft | 158 kts | 302° |
| 2026-05-05 21:25 | 36.26162 | 25.58229 | 3048 ft | 155 kts | 317° |
| 2026-05-05 21:26 | 36.27019 | 25.57545 | 3009 ft | 141 kts | 325° |
| 2026-05-05 21:26 | 36.27840 | 25.56929 | 3009 ft | 136 kts | 324° |
| 2026-05-05 21:26 | 36.28643 | 25.56324 | 2970 ft | 136 kts | 325° |
| 2026-05-05 21:26 | 36.29426 | 25.55743 | 2779 ft | 128 kts | 324° |
| 2026-05-05 21:27 | 36.30176 | 25.55186 | 2580 ft | 124 kts | 324° |
| 2026-05-05 21:27 | 36.30916 | 25.54637 | 2396 ft | 124 kts | 324° |
| 2026-05-05 21:27 | 36.31651 | 25.54089 | 2203 ft | 123 kts | 324° |
| 2026-05-05 21:27 | 36.32383 | 25.53546 | 2014 ft | 122 kts | 324° |
| 2026-05-05 21:28 | 36.33112 | 25.53002 | 1822 ft | 122 kts | 323° |
| 2026-05-05 21:28 | 36.33822 | 25.52428 | 1617 ft | 122 kts | 320° |
| 2026-05-05 21:28 | 36.34482 | 25.51783 | 1428 ft | 121 kts | 315° |
| 2026-05-05 21:28 | 36.35115 | 25.51096 | 1221 ft | 121 kts | 314° |
| 2026-05-05 21:29 | 36.35735 | 25.50379 | 980 ft | 122 kts | 314° |
| 2026-05-05 21:29 | 36.36424 | 25.49744 | 722 ft | 124 kts | 324° |
| 2026-05-05 21:29 | 36.37190 | 25.49218 | 474 ft | 127 kts | 334° |
| 2026-05-05 21:29 | 36.38018 | 25.48815 | 284 ft | 128 kts | 341° |
| 2026-05-05 21:30 | 36.38852 | 25.48421 | 123 ft | 129 kts | 339° |
| 2026-05-05 21:30 | 36.39633 | 25.48046 | 67 ft | 102 kts | 339° |
| 2026-05-05 21:30 | 36.40138 | 25.47811 | 87 ft | 53 kts | 339° |
| 2026-05-05 21:30 | 36.40337 | 25.47718 | 89 ft | 20 kts | 339° |
| 2026-05-05 21:31 | 36.40459 | 25.47648 | 89 ft | 17 kts | 302° |
| 2026-05-05 21:31 | 36.40435 | 25.47512 | 92 ft | 15 kts | 248° |
| 2026-05-05 21:31 | 36.40408 | 25.47432 | 90 ft | 10 kts | 239° |
| 2026-05-05 21:31 | 36.40388 | 25.47381 | 90 ft | 7 kts | 248° |
| 2026-05-05 21:32 | 36.40381 | 25.47358 | 93 ft | 0 kts | 250° |